Philadelphia, PA (19118)

2:26 AM EDT on July 27, 2016 (GMT -0400)
Stotesbury | | Change Station

Elev 259 ft 40.09 °N, 75.20 °W | Updated 10 seconds ago

Scattered Clouds
Scattered Clouds
73.8 °F
Feels Like 71 °F
N
0.0
Wind Variable Wind from North
Gusts 0.0 mph

Today
High -- | Low -- °F
--% Chance of Precip.
Yesterday
High -- | Low -- °F
Precip. -- in
Pressure 29.93 in
Visibility 10.0 miles
Clouds Scattered Clouds 7000 ft
Heat Index 71 °F
Dew Point 71 °F
Humidity 92%
Rainfall 0.00 in
Snow Depth Not available.
5:54 AM 8:19 PM
Waning Gibbous, 46% visible
METAR KLOM 270615Z AUTO 00000KT 10SM SCT070 21/20 A2993 RMK AO1
Pressure 29.93 in
Visibility 10.0 miles
Clouds Scattered Clouds 7000 ft
Heat Index 71 °F
Dew Point 71 °F
Humidity 92%
Rainfall 0.00 in
Snow Depth Not available.
5:54 AM 8:19 PM
Waning Gibbous, 46% visible
METAR KLOM 270615Z AUTO 00000KT 10SM SCT070 21/20 A2993 RMK AO1

10-Day Weather Forecast

Almanac

Astronomy

Jul. 27, 2016 Rise Set
Actual Time
Civil Twilight
Nautical Twilight
Astronomical Twilight
Moon
Length of Visible Light
Length of Day
Tomorrow will be .
, % of the Moon is Illuminated

Today's Extremes

State Highs State Lows

Community

WunderPhotos

Upload Photos

1,927,818 photos uploaded!

WunderBlog® & News

Nearby

Air Quality

  Air Quality AQ Index Pollutant
Not available.

Snow Depth

Station Depth Elevation

Earthquake Activity

City Distance Mag. Time & Date
Minimum magnitude displayed is 2.5.

Coastal Water Temperatures

Place Temperature

Stations

Nearby Weather Stations

Station Location Temp. Windchill Dew Point Humidity Wind Precip. Elev Updated Type
                   

Watches & Warnings

There are currently no watches in effect.